createdAt,value
2019-05-30T00:00:16.527Z,14.40
2019-05-30T00:04:14.222Z,14.60
2019-05-30T00:08:19.884Z,14.60
2019-05-30T00:12:25.567Z,14.60
2019-05-30T00:16:31.315Z,14.50
2019-05-30T00:20:37.004Z,14.50
2019-05-30T00:24:42.703Z,14.50
2019-05-30T00:28:48.444Z,14.60
2019-05-30T00:32:54.299Z,14.70
2019-05-30T00:37:00.039Z,14.70
2019-05-30T00:41:06.200Z,14.80
2019-05-30T00:45:21.031Z,14.70
2019-05-30T00:49:20.121Z,14.60
2019-05-30T00:53:26.307Z,14.60
2019-05-30T00:57:31.970Z,14.50
2019-05-30T01:01:37.672Z,14.40
2019-05-30T01:05:43.415Z,14.30
2019-05-30T01:09:49.119Z,14.40
2019-05-30T01:13:54.813Z,14.50
2019-05-30T01:18:01.049Z,14.40
2019-05-30T01:22:07.571Z,14.30
2019-05-30T01:26:13.643Z,14.20
2019-05-30T01:30:20.378Z,14.30
2019-05-30T01:34:26.069Z,14.20
2019-05-30T01:38:31.771Z,14.30
2019-05-30T01:42:37.531Z,14.30
2019-05-30T01:46:43.284Z,14.30
2019-05-30T01:50:49.043Z,14.30
2019-05-30T01:54:54.709Z,14.30
2019-05-30T01:59:00.702Z,14.20
2019-05-30T02:03:07.138Z,14.30
2019-05-30T02:07:13.047Z,14.20
2019-05-30T02:11:18.726Z,14.20
2019-05-30T02:15:24.632Z,13.90
2019-05-30T02:19:30.371Z,14.00
2019-05-30T02:23:36.072Z,14.00
2019-05-30T02:27:41.819Z,14.00
2019-05-30T02:31:47.579Z,14.10
2019-05-30T02:35:53.345Z,14.00
2019-05-30T02:40:01.028Z,14.00
2019-05-30T02:44:07.716Z,13.90
2019-05-30T02:48:14.294Z,13.20
2019-05-30T02:52:19.977Z,12.70
2019-05-30T02:56:25.655Z,12.40
2019-05-30T03:00:37.521Z,12.80
2019-05-30T03:04:43.192Z,13.30
2019-05-30T03:08:49.971Z,13.50
2019-05-30T03:12:55.856Z,13.40
2019-05-30T03:17:02.575Z,13.40
2019-05-30T03:21:12.437Z,13.60
2019-05-30T03:25:17.045Z,13.60
2019-05-30T03:29:22.865Z,13.50
2019-05-30T03:33:39.330Z,13.20
2019-05-30T03:37:36.360Z,13.00
2019-05-30T03:41:42.103Z,13.10
2019-05-30T03:45:48.186Z,13.00
2019-05-30T03:49:56.364Z,13.10
2019-05-30T03:54:04.989Z,13.10
2019-05-30T03:58:29.273Z,13.20
2019-05-30T04:02:57.431Z,13.00
2019-05-30T04:07:15.871Z,13.20
2019-05-30T04:11:26.338Z,13.10
2019-05-30T04:15:35.939Z,13.40
2019-05-30T04:19:41.762Z,13.60
2019-05-30T04:23:47.519Z,13.60
2019-05-30T04:27:53.746Z,13.70
2019-05-30T04:31:59.465Z,13.70
2019-05-30T04:36:05.212Z,13.80
2019-05-30T04:40:13.266Z,13.90
2019-05-30T04:44:20.398Z,14.00
2019-05-30T04:48:26.287Z,14.10
2019-05-30T04:52:32.065Z,14.20
2019-05-30T04:56:37.817Z,14.20
2019-05-30T05:00:43.608Z,14.30
2019-05-30T05:04:49.293Z,14.30
2019-05-30T05:08:55.027Z,14.10
2019-05-30T05:13:00.664Z,14.20
2019-05-30T05:17:06.382Z,14.40
2019-05-30T05:21:12.805Z,14.60
2019-05-30T05:25:19.506Z,14.60
2019-05-30T05:29:26.421Z,14.60
2019-05-30T05:33:33.142Z,14.70
2019-05-30T05:37:38.856Z,14.80
2019-05-30T05:41:44.533Z,14.80
2019-05-30T05:45:51.124Z,15.00
2019-05-30T05:49:56.834Z,15.20
2019-05-30T05:54:02.587Z,15.30
2019-05-30T05:58:08.254Z,15.30
2019-05-30T06:02:14.212Z,15.40
2019-05-30T06:06:21.192Z,15.40
2019-05-30T06:10:27.981Z,15.40
2019-05-30T06:14:33.850Z,15.50
2019-05-30T06:18:39.621Z,15.60
2019-05-30T06:22:45.298Z,15.70
2019-05-30T06:26:51.012Z,15.80
2019-05-30T06:30:59.061Z,15.90
2019-05-30T06:35:07.150Z,16.10
2019-05-30T06:39:12.871Z,16.20
2019-05-30T06:43:21.821Z,16.40
2019-05-30T06:47:28.468Z,16.30
2019-05-30T06:51:34.363Z,16.60
2019-05-30T06:55:40.322Z,16.60
2019-05-30T06:59:46.050Z,16.80
2019-05-30T07:03:51.883Z,17.00
2019-05-30T07:07:57.772Z,17.20
2019-05-30T07:12:17.243Z,17.10
2019-05-30T07:16:23.413Z,17.10
2019-05-30T07:20:29.734Z,17.70
2019-05-30T07:24:35.525Z,18.10
2019-05-30T07:28:41.280Z,18.30
2019-05-30T07:32:47.386Z,18.70
2019-05-30T07:36:53.093Z,19.10
2019-05-30T07:40:58.829Z,19.50
2019-05-30T07:45:12.221Z,19.90
2019-05-30T07:49:17.971Z,20.40
2019-05-30T07:53:23.771Z,20.40
2019-05-30T07:57:30.217Z,20.60
2019-05-30T08:01:36.106Z,21.00
2019-05-30T08:05:41.928Z,21.30
2019-05-30T08:09:47.621Z,21.70
2019-05-30T08:13:53.333Z,22.30
2019-05-30T08:17:59.039Z,22.40
2019-05-30T08:22:05.219Z,22.70
2019-05-30T08:26:11.336Z,22.90
2019-05-30T08:30:17.857Z,22.80
2019-05-30T08:34:23.729Z,22.80
2019-05-30T08:38:29.470Z,23.20
2019-05-30T08:42:38.183Z,23.80
2019-05-30T08:46:43.949Z,24.20
2019-05-30T08:50:49.626Z,24.30
2019-05-30T08:54:55.312Z,24.40
2019-05-30T08:59:01.012Z,24.60
2019-05-30T09:03:06.824Z,25.00
2019-05-30T09:07:12.531Z,25.30
2019-05-30T09:11:18.213Z,25.80
2019-05-30T09:15:26.079Z,25.70
2019-05-30T09:19:31.760Z,25.30
2019-05-30T09:23:39.169Z,25.80
2019-05-30T09:27:46.490Z,26.20
2019-05-30T09:31:52.378Z,26.80
2019-05-30T09:36:12.121Z,26.20
2019-05-30T09:40:12.071Z,25.10
2019-05-30T09:44:17.745Z,24.20
2019-05-30T09:48:23.541Z,23.70
2019-05-30T09:52:29.372Z,23.40
2019-05-30T09:56:35.128Z,22.90
2019-05-30T10:00:42.919Z,22.80
2019-05-30T10:04:48.708Z,22.10
2019-05-30T10:08:54.485Z,21.60
2019-05-30T10:13:00.174Z,21.40
2019-05-30T10:17:06.507Z,21.60
2019-05-30T10:21:12.289Z,22.00
2019-05-30T10:25:18.471Z,22.40
2019-05-30T10:29:25.237Z,22.70
2019-05-30T10:33:31.019Z,24.70
2019-05-30T10:37:36.763Z,26.70
2019-05-30T10:41:42.481Z,27.90
2019-05-30T10:45:49.391Z,28.80
2019-05-30T10:49:55.210Z,28.60
2019-05-30T10:54:00.921Z,29.20
2019-05-30T10:58:06.996Z,27.20
2019-05-30T11:02:12.689Z,28.00
2019-05-30T11:06:25.593Z,27.80
2019-05-30T11:10:42.947Z,27.90
2019-05-30T11:14:50.236Z,28.40
2019-05-30T11:18:56.323Z,26.90
2019-05-30T11:23:02.097Z,25.80
2019-05-30T11:27:08.117Z,26.10
2019-05-30T11:31:13.810Z,25.80
2019-05-30T11:35:19.659Z,25.30
2019-05-30T11:39:25.725Z,24.80
2019-05-30T11:43:31.445Z,26.80
2019-05-30T11:47:37.296Z,28.80
2019-05-30T11:51:42.998Z,29.80
2019-05-30T11:55:50.128Z,30.50
2019-05-30T11:59:56.217Z,28.80
2019-05-30T12:04:01.889Z,29.20
2019-05-30T12:08:07.718Z,30.40
2019-05-30T12:12:13.393Z,29.90
2019-05-30T12:16:19.084Z,28.30
2019-05-30T12:20:25.187Z,27.30
2019-05-30T12:24:30.911Z,26.60
2019-05-30T12:28:36.608Z,26.30
2019-05-30T12:32:42.304Z,26.00
2019-05-30T12:36:48.016Z,25.70
2019-05-30T12:40:54.713Z,27.30
2019-05-30T12:45:06.643Z,29.10
2019-05-30T12:49:07.925Z,28.00
2019-05-30T12:53:13.613Z,26.50
2019-05-30T12:57:19.305Z,25.80
2019-05-30T13:01:27.502Z,25.30
2019-05-30T13:05:33.322Z,25.70
2019-05-30T13:09:39.107Z,26.80
2019-05-30T13:13:44.751Z,26.40
2019-05-30T13:17:50.484Z,25.90
2019-05-30T13:21:57.108Z,25.30
2019-05-30T13:26:03.815Z,25.10
2019-05-30T13:30:10.983Z,25.10
2019-05-30T13:34:16.675Z,25.10
2019-05-30T13:38:26.589Z,25.10
2019-05-30T13:42:29.713Z,24.90
2019-05-30T13:46:35.421Z,24.80
2019-05-30T13:50:41.240Z,24.80
2019-05-30T13:54:46.979Z,24.70
2019-05-30T13:58:52.691Z,25.80
2019-05-30T14:02:58.411Z,27.40
2019-05-30T14:07:06.277Z,27.90
2019-05-30T14:11:11.563Z,26.90
2019-05-30T14:15:18.466Z,25.80
2019-05-30T14:19:25.184Z,25.90
2019-05-30T14:23:30.958Z,25.50
2019-05-30T14:27:36.716Z,25.40
2019-05-30T14:31:42.442Z,25.30
2019-05-30T14:35:48.162Z,25.20
2019-05-30T14:39:53.830Z,25.30
2019-05-30T14:43:59.592Z,25.20
2019-05-30T14:48:06.430Z,25.40
2019-05-30T14:52:13.319Z,25.20
2019-05-30T14:56:19.076Z,25.00
2019-05-30T15:00:24.915Z,24.90
2019-05-30T15:04:30.983Z,24.90
2019-05-30T15:08:36.636Z,24.90
2019-05-30T15:12:42.530Z,24.90
2019-05-30T15:16:48.286Z,25.20
2019-05-30T15:20:54.054Z,25.20
2019-05-30T15:24:59.751Z,25.20
2019-05-30T15:29:05.987Z,25.10
2019-05-30T15:33:12.655Z,24.90
2019-05-30T15:37:18.344Z,24.80
2019-05-30T15:41:24.103Z,24.90
2019-05-30T15:45:29.793Z,24.80
2019-05-30T15:49:35.501Z,24.60
2019-05-30T15:53:41.169Z,24.80
2019-05-30T15:57:47.001Z,24.80
2019-05-30T16:01:52.817Z,24.80
2019-05-30T16:05:58.501Z,24.70
2019-05-30T16:10:05.934Z,24.60
2019-05-30T16:14:11.677Z,24.50
2019-05-30T16:18:17.730Z,24.50
2019-05-30T16:22:23.518Z,24.50
2019-05-30T16:26:29.283Z,24.20
2019-05-30T16:30:35.197Z,24.00
2019-05-30T16:34:40.972Z,24.10
2019-05-30T16:38:46.733Z,24.00
2019-05-30T16:42:52.580Z,24.30
2019-05-30T16:46:58.288Z,24.40
2019-05-30T16:55:17.188Z,24.40
2019-05-30T16:59:22.958Z,24.00
2019-05-30T17:03:28.663Z,24.10
2019-05-30T17:07:34.470Z,24.10
2019-05-30T17:11:40.153Z,24.00
2019-05-30T17:15:46.804Z,23.90
2019-05-30T17:19:52.528Z,23.90
2019-05-30T17:23:58.359Z,23.90
2019-05-30T17:28:04.192Z,23.80
2019-05-30T17:32:09.947Z,23.80
2019-05-30T17:36:15.727Z,23.80
2019-05-30T17:40:35.576Z,23.70
2019-05-30T17:44:29.798Z,23.70
2019-05-30T17:48:35.678Z,23.60
2019-05-30T17:52:41.469Z,23.50
2019-05-30T17:56:47.131Z,23.40
2019-05-30T18:00:52.818Z,23.40
2019-05-30T18:04:58.536Z,23.40
2019-05-30T18:09:06.073Z,23.30
2019-05-30T18:13:11.772Z,23.30
2019-05-30T18:17:17.557Z,23.20
2019-05-30T18:21:23.446Z,23.20
2019-05-30T18:25:30.135Z,23.10
2019-05-30T18:29:35.820Z,23.00
2019-05-30T18:33:41.533Z,23.00
2019-05-30T18:37:47.336Z,23.00
2019-05-30T18:41:53.114Z,22.90
2019-05-30T18:45:58.894Z,22.90
2019-05-30T18:50:06.222Z,22.90
2019-05-30T18:54:11.915Z,22.90
2019-05-30T18:58:17.609Z,22.80
2019-05-30T19:02:23.272Z,22.60
2019-05-30T19:06:29.977Z,22.50
2019-05-30T19:10:37.253Z,22.50
2019-05-30T19:14:47.406Z,22.50
2019-05-30T19:18:53.156Z,22.30
2019-05-30T19:22:58.868Z,22.20
2019-05-30T19:27:04.603Z,22.00
2019-05-30T19:31:10.363Z,21.90
2019-05-30T19:35:16.364Z,21.70
2019-05-30T19:39:22.061Z,21.40
2019-05-30T19:43:27.748Z,21.40
2019-05-30T19:47:34.575Z,21.40
2019-05-30T19:51:40.446Z,21.40
2019-05-30T19:55:46.121Z,21.40
2019-05-30T19:59:51.836Z,21.40
2019-05-30T20:03:57.519Z,21.40
2019-05-30T20:08:03.293Z,21.40
2019-05-30T20:12:09.313Z,21.10
2019-05-30T20:16:15.067Z,21.00
2019-05-30T20:20:21.038Z,21.20
2019-05-30T20:24:27.699Z,21.20
2019-05-30T20:28:34.713Z,21.30
2019-05-30T20:32:40.889Z,21.10
2019-05-30T20:36:46.946Z,21.00
2019-05-30T20:40:52.662Z,21.00
2019-05-30T20:44:58.438Z,21.00
2019-05-30T20:49:04.858Z,20.90
2019-05-30T20:53:10.635Z,21.00
2019-05-30T20:57:16.451Z,20.90
2019-05-30T21:01:22.173Z,20.80
2019-05-30T21:05:28.010Z,20.90
2019-05-30T21:09:36.413Z,21.00
2019-05-30T21:13:47.043Z,20.90
2019-05-30T21:17:56.045Z,20.80
2019-05-30T21:22:01.750Z,20.70
2019-05-30T21:26:07.514Z,20.70
2019-05-30T21:30:13.962Z,21.20
2019-05-30T21:34:19.713Z,20.70
2019-05-30T21:38:25.408Z,20.70
2019-05-30T21:42:31.304Z,20.90
2019-05-30T21:46:38.521Z,20.60
2019-05-30T21:50:46.039Z,20.40
2019-05-30T21:54:51.908Z,20.40
2019-05-30T21:58:57.615Z,20.90
2019-05-30T22:03:03.457Z,21.40
2019-05-30T22:07:09.175Z,21.30
2019-05-30T22:11:14.960Z,21.40
2019-05-30T22:15:20.802Z,21.60
2019-05-30T22:19:27.461Z,21.70
2019-05-30T22:23:33.158Z,21.70
2019-05-30T22:27:38.872Z,21.70
2019-05-30T22:31:44.665Z,21.80
2019-05-30T22:35:50.991Z,21.90
2019-05-30T22:39:56.694Z,21.60
2019-05-30T22:44:02.573Z,21.50
2019-05-30T22:48:08.262Z,21.70
2019-05-30T22:52:13.951Z,21.70
2019-05-30T22:56:19.935Z,21.70
2019-05-30T23:00:26.609Z,21.60
2019-05-30T23:04:32.324Z,21.40
2019-05-30T23:08:38.122Z,21.40
2019-05-30T23:12:44.176Z,21.50
2019-05-30T23:16:50.258Z,21.50
2019-05-30T23:20:56.838Z,21.60
2019-05-30T23:25:02.669Z,21.50
2019-05-30T23:29:08.338Z,21.40
2019-05-30T23:33:14.044Z,21.30
2019-05-30T23:37:19.817Z,21.30
2019-05-30T23:41:25.555Z,21.10
2019-05-30T23:45:31.264Z,21.30
2019-05-30T23:49:37.994Z,21.20
2019-05-30T23:53:43.743Z,20.80
2019-05-30T23:57:50.348Z,20.80
